BEL2VF LDZD-EBBR
Flight info
| Callsign | BEL2VF |
|---|---|
| Flight time | N/A |
| Altitude | 38000 |
| Route | RAVNA DCT ULPIN DCT CRE DCT MONFA DCT SOTOV P66 KPT L608 TEDGO DCT ADENU L608 BATTY |
| Aircraft | A319/M-DE3FGIJ1LORVWY/H |
Departure
| Time | 2026-04-30 14:33 |
|---|---|
| Airport | Zadar Airport (LDZD) |
Arrival
| Time | N/A |
|---|---|
| Airport | Brussels Airport (EBBR) |
| Time | Latitude | Longitude | Altitude | Speed | Heading |
|---|---|---|---|---|---|
| 2026-04-30 13:52 | 44.09651 | 15.35435 | 279 ft | 0 kts | 269° |
| 2026-04-30 14:16 | 44.09651 | 15.35444 | 279 ft | 4 kts | 269° |
| 2026-04-30 14:17 | 44.09651 | 15.35481 | 279 ft | 4 kts | 265° |
| 2026-04-30 14:17 | 44.09656 | 15.35517 | 282 ft | 4 kts | 238° |
| 2026-04-30 14:17 | 44.09673 | 15.35538 | 282 ft | 4 kts | 185° |
| 2026-04-30 14:17 | 44.09682 | 15.35539 | 279 ft | 0 kts | 179° |
| 2026-04-30 14:26 | 44.09678 | 15.35539 | 279 ft | 1 kts | 179° |
| 2026-04-30 14:26 | 44.09624 | 15.35540 | 279 ft | 7 kts | 179° |
| 2026-04-30 14:27 | 44.09571 | 15.35542 | 279 ft | 8 kts | 179° |
| 2026-04-30 14:27 | 44.09506 | 15.35543 | 279 ft | 10 kts | 179° |
| 2026-04-30 14:27 | 44.09428 | 15.35549 | 282 ft | 12 kts | 165° |
| 2026-04-30 14:28 | 44.09292 | 15.35729 | 278 ft | 15 kts | 153° |
| 2026-04-30 14:28 | 44.09199 | 15.35665 | 278 ft | 17 kts | 222° |
| 2026-04-30 14:28 | 44.09111 | 15.35557 | 279 ft | 17 kts | 221° |
| 2026-04-30 14:28 | 44.09025 | 15.35452 | 280 ft | 16 kts | 221° |
| 2026-04-30 14:29 | 44.08847 | 15.35233 | 284 ft | 19 kts | 221° |
| 2026-04-30 14:29 | 44.08678 | 15.35023 | 285 ft | 20 kts | 221° |
| 2026-04-30 14:30 | 44.08364 | 15.34636 | 292 ft | 19 kts | 221° |
| 2026-04-30 14:31 | 44.08179 | 15.34408 | 298 ft | 16 kts | 221° |
| 2026-04-30 14:31 | 44.08036 | 15.34192 | 298 ft | 15 kts | 259° |
| 2026-04-30 14:31 | 44.07999 | 15.34068 | 295 ft | 13 kts | 195° |
| 2026-04-30 14:32 | 44.07986 | 15.34169 | 299 ft | 0 kts | 43° |
| 2026-04-30 14:32 | 44.08082 | 15.34286 | 295 ft | 55 kts | 41° |
| 2026-04-30 14:32 | 44.08549 | 15.34860 | 287 ft | 121 kts | 42° |
| 2026-04-30 14:33 | 44.09232 | 15.35729 | 752 ft | 127 kts | 46° |
| 2026-04-30 14:33 | 44.09463 | 15.37967 | 2003 ft | 152 kts | 121° |
| 2026-04-30 14:33 | 44.08411 | 15.38706 | 2263 ft | 194 kts | 166° |
| 2026-04-30 14:34 | 44.07018 | 15.38951 | 2737 ft | 211 kts | 165° |
| 2026-04-30 14:34 | 44.05496 | 15.39320 | 3108 ft | 239 kts | 163° |
| 2026-04-30 14:34 | 44.03759 | 15.39772 | 3666 ft | 263 kts | 164° |
| 2026-04-30 14:34 | 44.01940 | 15.40239 | 4493 ft | 273 kts | 165° |
| 2026-04-30 14:35 | 43.98119 | 15.41179 | 6592 ft | 279 kts | 168° |
| 2026-04-30 14:35 | 43.96227 | 15.41638 | 7586 ft | 280 kts | 166° |
| 2026-04-30 14:35 | 43.94240 | 15.42131 | 8355 ft | 291 kts | 167° |
| 2026-04-30 14:36 | 43.92213 | 15.42392 | 9260 ft | 297 kts | 182° |
| 2026-04-30 14:36 | 43.90257 | 15.41572 | 10126 ft | 303 kts | 212° |
| 2026-04-30 14:36 | 43.88742 | 15.39561 | 10917 ft | 304 kts | 238° |
| 2026-04-30 14:36 | 43.87878 | 15.36912 | 11685 ft | 303 kts | 261° |
| 2026-04-30 14:37 | 43.87793 | 15.34019 | 12411 ft | 304 kts | 283° |
| 2026-04-30 14:37 | 43.88584 | 15.31273 | 12870 ft | 314 kts | 307° |
| 2026-04-30 14:37 | 43.90207 | 15.29210 | 13250 ft | 326 kts | 332° |
| 2026-04-30 14:37 | 43.92411 | 15.28248 | 13539 ft | 343 kts | 354° |
| 2026-04-30 14:38 | 43.94825 | 15.28087 | 14141 ft | 350 kts | 357° |
| 2026-04-30 14:38 | 43.97265 | 15.27780 | 14811 ft | 354 kts | 347° |
| 2026-04-30 14:38 | 43.99558 | 15.26533 | 15502 ft | 357 kts | 333° |
| 2026-04-30 14:38 | 44.01758 | 15.24900 | 16223 ft | 360 kts | 332° |
| 2026-04-30 14:39 | 44.03972 | 15.23234 | 16934 ft | 363 kts | 332° |
| 2026-04-30 14:39 | 44.06195 | 15.21548 | 17630 ft | 366 kts | 331° |
| 2026-04-30 14:39 | 44.08437 | 15.19846 | 18317 ft | 369 kts | 331° |
| 2026-04-30 14:40 | 44.12965 | 15.16409 | 19517 ft | 375 kts | 331° |
| 2026-04-30 14:40 | 44.15285 | 15.14648 | 20127 ft | 378 kts | 331° |
| 2026-04-30 14:40 | 44.17604 | 15.12888 | 20703 ft | 381 kts | 331° |
| 2026-04-30 14:40 | 44.19941 | 15.11112 | 21281 ft | 384 kts | 331° |
| 2026-04-30 14:41 | 44.22293 | 15.09328 | 21821 ft | 387 kts | 331° |
| 2026-04-30 14:41 | 44.24665 | 15.07527 | 22362 ft | 390 kts | 331° |
| 2026-04-30 14:41 | 44.27060 | 15.05705 | 22883 ft | 393 kts | 331° |
| 2026-04-30 14:41 | 44.29468 | 15.03869 | 23407 ft | 395 kts | 331° |
| 2026-04-30 14:42 | 44.31886 | 15.02022 | 23920 ft | 398 kts | 331° |
| 2026-04-30 14:42 | 44.34326 | 15.00159 | 24344 ft | 401 kts | 331° |
| 2026-04-30 14:42 | 44.36387 | 14.98586 | 24707 ft | 402 kts | 331° |
| 2026-04-30 14:42 | 44.38846 | 14.96710 | 25151 ft | 404 kts | 331° |
| 2026-04-30 14:43 | 44.41324 | 14.94816 | 25610 ft | 406 kts | 331° |
| 2026-04-30 14:43 | 44.43803 | 14.92920 | 26030 ft | 408 kts | 330° |
| 2026-04-30 14:43 | 44.46302 | 14.91008 | 26453 ft | 410 kts | 330° |
| 2026-04-30 14:43 | 44.48804 | 14.89091 | 26880 ft | 412 kts | 330° |
| 2026-04-30 14:44 | 44.51275 | 14.87187 | 27277 ft | 413 kts | 330° |
| 2026-04-30 14:44 | 44.53742 | 14.84962 | 27681 ft | 415 kts | 322° |
| 2026-04-30 14:44 | 44.55962 | 14.82370 | 28072 ft | 416 kts | 320° |
| 2026-04-30 14:44 | 44.58150 | 14.79788 | 28459 ft | 418 kts | 320° |
| 2026-04-30 14:45 | 44.60381 | 14.77165 | 28833 ft | 420 kts | 320° |
| 2026-04-30 14:45 | 44.62625 | 14.74530 | 29206 ft | 422 kts | 320° |
| 2026-04-30 14:45 | 44.64883 | 14.71875 | 29552 ft | 424 kts | 320° |
| 2026-04-30 14:45 | 44.67135 | 14.69216 | 29901 ft | 426 kts | 320° |
| 2026-04-30 14:46 | 44.69412 | 14.66519 | 30324 ft | 426 kts | 320° |
| 2026-04-30 14:46 | 44.71670 | 14.63844 | 30750 ft | 424 kts | 320° |
| 2026-04-30 14:46 | 44.73919 | 14.61179 | 31137 ft | 423 kts | 320° |
| 2026-04-30 14:46 | 44.76171 | 14.58507 | 31513 ft | 423 kts | 320° |
| 2026-04-30 14:47 | 44.78416 | 14.55835 | 31873 ft | 423 kts | 319° |
| 2026-04-30 14:47 | 44.80660 | 14.53156 | 32221 ft | 423 kts | 319° |
| 2026-04-30 14:47 | 44.82898 | 14.50485 | 32588 ft | 423 kts | 319° |
| 2026-04-30 14:47 | 44.85140 | 14.47810 | 32994 ft | 422 kts | 320° |
| 2026-04-30 14:48 | 44.87377 | 14.45141 | 33293 ft | 423 kts | 320° |
| 2026-04-30 14:48 | 44.89610 | 14.42401 | 33631 ft | 424 kts | 316° |
| 2026-04-30 14:48 | 44.91555 | 14.39270 | 33983 ft | 425 kts | 307° |
| 2026-04-30 14:48 | 44.93299 | 14.35919 | 34324 ft | 425 kts | 307° |
| 2026-04-30 14:49 | 44.95052 | 14.32549 | 34636 ft | 425 kts | 307° |
| 2026-04-30 14:49 | 44.96802 | 14.29189 | 34935 ft | 425 kts | 307° |
| 2026-04-30 14:49 | 44.98552 | 14.25836 | 35216 ft | 425 kts | 308° |
| 2026-04-30 14:49 | 45.00306 | 14.22475 | 35492 ft | 425 kts | 308° |
| 2026-04-30 14:50 | 45.03800 | 14.15765 | 36055 ft | 425 kts | 308° |
| 2026-04-30 14:50 | 45.05560 | 14.12371 | 36328 ft | 424 kts | 308° |
| 2026-04-30 14:51 | 45.09047 | 14.05643 | 36897 ft | 424 kts | 308° |
| 2026-04-30 14:51 | 45.10789 | 14.02276 | 37158 ft | 424 kts | 308° |
| 2026-04-30 14:51 | 45.14279 | 13.95518 | 37569 ft | 425 kts | 308° |
| 2026-04-30 14:52 | 45.16020 | 13.92137 | 37811 ft | 425 kts | 308° |
| 2026-04-30 14:52 | 45.19503 | 13.85363 | 38236 ft | 426 kts | 308° |
| 2026-04-30 14:52 | 45.21243 | 13.81977 | 38274 ft | 426 kts | 308° |
| 2026-04-30 14:53 | 45.26465 | 13.71787 | 38274 ft | 425 kts | 308° |
| 2026-04-30 14:54 | 45.33403 | 13.58176 | 38276 ft | 426 kts | 308° |
| 2026-04-30 14:55 | 45.38597 | 13.47975 | 38277 ft | 427 kts | 308° |
| 2026-04-30 14:56 | 45.45545 | 13.34225 | 38281 ft | 429 kts | 308° |
| 2026-04-30 14:57 | 45.51237 | 13.24459 | 38272 ft | 426 kts | 318° |
| 2026-04-30 14:58 | 45.59804 | 13.12756 | 38287 ft | 427 kts | 317° |
| 2026-04-30 14:58 | 45.66220 | 13.03922 | 38300 ft | 427 kts | 318° |
| 2026-04-30 15:00 | 45.76863 | 12.89218 | 38287 ft | 426 kts | 318° |
| 2026-04-30 15:01 | 45.85385 | 12.77388 | 38308 ft | 426 kts | 318° |